createdAt,value
2023-02-04T00:02:32.904Z,7.60
2023-02-04T00:05:36.524Z,7.50
2023-02-04T00:08:44.298Z,7.50
2023-02-04T00:11:48.189Z,7.50
2023-02-04T00:14:54.025Z,7.50
2023-02-04T00:17:57.756Z,7.50
2023-02-04T00:21:03.558Z,7.50
2023-02-04T00:24:09.435Z,7.50
2023-02-04T00:27:15.591Z,7.50
2023-02-04T00:30:19.574Z,7.50
2023-02-04T00:33:25.328Z,7.50
2023-02-04T00:36:29.200Z,7.50
2023-02-04T00:39:37.001Z,7.50
2023-02-04T00:42:42.994Z,7.60
2023-02-04T00:45:48.857Z,7.60
2023-02-04T00:48:52.647Z,7.60
2023-02-04T00:51:58.532Z,7.60
2023-02-04T00:55:07.308Z,7.60
2023-02-04T00:58:13.258Z,7.60
2023-02-04T01:01:16.858Z,7.60
2023-02-04T01:04:22.841Z,7.60
2023-02-04T01:07:28.455Z,7.70
2023-02-04T01:10:36.239Z,7.70
2023-02-04T01:13:40.321Z,7.60
2023-02-04T01:16:46.945Z,7.70
2023-02-04T01:19:50.819Z,7.70
2023-02-04T01:22:56.762Z,7.70
2023-02-04T01:26:02.475Z,7.70
2023-02-04T01:29:08.353Z,7.70
2023-02-04T01:32:11.973Z,7.70
2023-02-04T01:35:17.983Z,7.70
2023-02-04T01:38:21.818Z,7.70
2023-02-04T01:41:29.900Z,7.70
2023-02-04T01:44:33.938Z,7.70
2023-02-04T01:47:40.623Z,7.70
2023-02-04T01:50:44.428Z,7.70
2023-02-04T01:53:50.293Z,7.70
2023-02-04T01:56:56.438Z,7.70
2023-02-04T02:00:02.965Z,7.70
2023-02-04T02:03:15.997Z,7.70
2023-02-04T02:06:23.062Z,7.70
2023-02-04T02:09:28.013Z,7.70
2023-02-04T02:12:35.830Z,7.70
2023-02-04T02:15:40.015Z,7.70
2023-02-04T02:18:45.985Z,7.70
2023-02-04T02:21:52.871Z,7.70
2023-02-04T02:25:00.739Z,7.70
2023-02-04T02:28:07.997Z,7.70
2023-02-04T02:31:13.912Z,7.70
2023-02-04T02:34:18.215Z,7.70
2023-02-04T02:37:24.251Z,7.70
2023-02-04T02:40:30.133Z,7.70
2023-02-04T02:43:37.891Z,7.70
2023-02-04T02:46:42.187Z,7.70
2023-02-04T02:49:50.387Z,7.70
2023-02-04T02:52:55.009Z,7.70
2023-02-04T02:56:04.788Z,7.70
2023-02-04T02:59:17.708Z,7.70
2023-02-04T03:02:25.520Z,7.70
2023-02-04T03:05:34.019Z,7.70
2023-02-04T03:08:40.549Z,7.70
2023-02-04T03:11:46.398Z,7.70
2023-02-04T03:14:52.437Z,7.70
2023-02-04T03:17:57.732Z,7.70
2023-02-04T03:21:06.155Z,7.70
2023-02-04T03:24:10.241Z,7.70
2023-02-04T03:27:18.905Z,7.70
2023-02-04T03:30:23.098Z,7.70
2023-02-04T03:33:30.927Z,7.70
2023-02-04T03:36:35.934Z,7.70
2023-02-04T03:39:41.886Z,7.70
2023-02-04T03:42:47.346Z,7.80
2023-02-04T03:45:53.180Z,7.70
2023-02-04T03:48:56.847Z,7.80
2023-02-04T03:52:02.709Z,7.70
2023-02-04T03:55:06.582Z,7.70
2023-02-04T03:58:14.359Z,7.70
2023-02-04T04:01:18.248Z,7.70
2023-02-04T04:04:24.299Z,7.70
2023-02-04T04:07:28.112Z,7.70
2023-02-04T04:10:34.589Z,7.70
2023-02-04T04:13:40.508Z,7.70
2023-02-04T04:16:46.674Z,7.70
2023-02-04T04:19:50.897Z,7.70
2023-02-04T04:22:56.823Z,7.70
2023-02-04T04:26:00.622Z,7.70
2023-02-04T04:29:08.485Z,7.70
2023-02-04T04:32:12.301Z,7.70
2023-02-04T04:35:18.341Z,7.70
2023-02-04T04:38:22.235Z,7.70
2023-02-04T04:41:28.056Z,7.70
2023-02-04T04:44:33.785Z,7.70
2023-02-04T04:47:39.645Z,7.70
2023-02-04T04:50:43.917Z,7.70
2023-02-04T04:53:49.857Z,7.70
2023-02-04T04:56:53.418Z,7.70
2023-02-04T05:00:01.174Z,7.70
2023-02-04T05:03:05.116Z,7.80
2023-02-04T05:06:12.420Z,7.80
2023-02-04T05:09:16.868Z,7.80
2023-02-04T05:12:22.652Z,7.80
2023-02-04T05:15:28.375Z,7.80
2023-02-04T05:18:34.179Z,7.80
2023-02-04T05:21:38.039Z,7.80
2023-02-04T05:24:43.925Z,7.80
2023-02-04T05:27:47.672Z,7.80
2023-02-04T05:30:55.585Z,7.80
2023-02-04T05:33:59.484Z,7.80
2023-02-04T05:37:05.288Z,7.80
2023-02-04T05:40:10.519Z,7.80
2023-02-04T05:43:16.489Z,7.80
2023-02-04T05:46:21.941Z,7.70
2023-02-04T05:49:27.734Z,7.80
2023-02-04T05:52:31.828Z,7.80
2023-02-04T05:55:38.210Z,7.70
2023-02-04T05:58:41.765Z,7.80
2023-02-04T06:01:49.504Z,7.70
2023-02-04T06:04:53.346Z,7.70
2023-02-04T06:07:59.204Z,7.70
2023-02-04T06:11:03.183Z,7.70
2023-02-04T06:14:10.136Z,7.70
2023-02-04T06:17:15.928Z,7.70
2023-02-04T06:20:21.998Z,7.70
2023-02-04T06:23:25.892Z,7.70
2023-02-04T06:26:31.688Z,7.70
2023-02-04T06:29:35.487Z,7.70
2023-02-04T06:32:43.285Z,7.70
2023-02-04T06:35:47.179Z,7.70
2023-02-04T06:38:53.045Z,7.70
2023-02-04T06:41:56.691Z,7.70
2023-02-04T06:45:02.796Z,7.70
2023-02-04T06:48:08.744Z,7.70
2023-02-04T06:51:14.594Z,7.70
2023-02-04T06:54:18.237Z,7.60
2023-02-04T06:57:24.008Z,7.60
2023-02-04T07:00:28.021Z,7.60
2023-02-04T07:03:35.813Z,7.60
2023-02-04T07:06:39.653Z,7.60
2023-02-04T07:09:45.498Z,7.60
2023-02-04T07:12:49.064Z,7.60
2023-02-04T07:15:54.897Z,7.60
2023-02-04T07:19:00.635Z,7.60
2023-02-04T07:22:06.740Z,7.60
2023-02-04T07:25:14.375Z,7.60
2023-02-04T07:28:20.230Z,7.60
2023-02-04T07:31:23.856Z,7.50
2023-02-04T07:34:31.641Z,7.50
2023-02-04T07:37:35.609Z,7.50
2023-02-04T07:40:41.433Z,7.50
2023-02-04T07:43:45.138Z,7.50
2023-02-04T07:46:51.075Z,7.50
2023-02-04T07:49:57.364Z,7.50
2023-02-04T07:53:03.433Z,7.50
2023-02-04T07:56:07.552Z,7.50
2023-02-04T07:59:13.435Z,7.50
2023-02-04T08:02:17.332Z,7.50
2023-02-04T08:05:25.124Z,7.50
2023-02-04T08:08:28.891Z,7.50
2023-02-04T08:11:34.754Z,7.50
2023-02-04T08:14:38.346Z,7.50
2023-02-04T08:17:44.197Z,7.50
2023-02-04T08:20:49.696Z,7.50
2023-02-04T08:23:55.579Z,7.50
2023-02-04T08:26:59.709Z,7.50
2023-02-04T08:30:06.477Z,7.50
2023-02-04T08:33:10.358Z,7.50
2023-02-04T08:36:18.118Z,7.60
2023-02-04T08:39:21.952Z,7.60
2023-02-04T08:42:27.768Z,7.60
2023-02-04T08:45:31.565Z,7.60
2023-02-04T08:48:37.467Z,7.60
2023-02-04T08:51:43.010Z,7.60
2023-02-04T08:54:48.887Z,7.60
2023-02-04T08:57:52.442Z,7.70
2023-02-04T09:00:58.424Z,7.70
2023-02-04T09:04:02.417Z,7.70
2023-02-04T09:07:10.221Z,7.70
2023-02-04T09:10:14.127Z,7.80
2023-02-04T09:13:20.054Z,7.80
2023-02-04T09:16:23.689Z,7.80
2023-02-04T09:19:29.571Z,7.80
2023-02-04T09:22:37.220Z,7.90
2023-02-04T09:25:44.917Z,7.90
2023-02-04T09:28:50.984Z,7.90
2023-02-04T09:31:57.537Z,7.90
2023-02-04T09:35:01.446Z,8.00
2023-02-04T09:38:09.235Z,8.00
2023-02-04T09:41:14.610Z,8.00
2023-02-04T09:44:23.159Z,8.10
2023-02-04T09:47:28.409Z,8.10
2023-02-04T09:50:35.309Z,8.10
2023-02-04T09:53:41.294Z,8.10
2023-02-04T09:56:47.854Z,8.20
2023-02-04T09:59:53.153Z,8.20
2023-02-04T10:03:01.752Z,8.20
2023-02-04T10:06:06.322Z,8.20
2023-02-04T10:09:16.437Z,8.20
2023-02-04T10:12:20.486Z,8.30
2023-02-04T10:15:26.530Z,8.30
2023-02-04T10:18:33.266Z,8.30
2023-02-04T10:21:39.772Z,8.30
2023-02-04T10:24:45.640Z,8.30
2023-02-04T10:27:54.755Z,8.40
2023-02-04T10:30:58.654Z,8.40
2023-02-04T10:34:11.122Z,8.40
2023-02-04T10:37:21.084Z,8.50
2023-02-04T10:40:31.736Z,8.50
2023-02-04T10:43:35.781Z,8.60
2023-02-04T10:46:41.767Z,8.60
2023-02-04T10:49:54.543Z,8.60
2023-02-04T10:53:14.676Z,8.60
2023-02-04T10:56:23.049Z,8.60
2023-02-04T10:59:29.740Z,8.70
2023-02-04T11:02:39.000Z,8.70
2023-02-04T11:05:44.839Z,8.70
2023-02-04T11:08:49.645Z,8.70
2023-02-04T11:12:00.288Z,8.70
2023-02-04T11:15:04.955Z,8.80
2023-02-04T11:18:12.809Z,8.80
2023-02-04T11:21:23.568Z,8.80
2023-02-04T11:24:35.298Z,8.80
2023-02-04T11:27:43.239Z,8.90
2023-02-04T11:31:01.356Z,8.90
2023-02-04T11:34:25.322Z,8.90
2023-02-04T11:37:37.923Z,9.00
2023-02-04T11:40:42.315Z,9.10
2023-02-04T11:43:52.359Z,9.10
2023-02-04T11:46:57.834Z,9.10
2023-02-04T11:50:14.174Z,9.20
2023-02-04T11:53:18.103Z,9.20
2023-02-04T11:56:25.210Z,9.30
2023-02-04T11:59:31.009Z,9.30
2023-02-04T12:02:49.283Z,9.40
2023-02-04T12:05:54.456Z,9.40
2023-02-04T12:09:07.508Z,9.50
2023-02-04T12:12:11.383Z,9.50
2023-02-04T12:15:25.216Z,9.60
2023-02-04T12:18:29.823Z,9.60
2023-02-04T12:21:35.663Z,9.60
2023-02-04T12:24:39.457Z,9.60
2023-02-04T12:27:45.604Z,9.70
2023-02-04T12:30:51.568Z,9.70
2023-02-04T12:33:57.532Z,9.70
2023-02-04T12:37:01.334Z,9.70
2023-02-04T12:40:08.488Z,9.70
2023-02-04T12:43:12.451Z,9.80
2023-02-04T12:46:20.248Z,9.70
2023-02-04T12:49:25.149Z,9.80
2023-02-04T12:52:31.076Z,9.80
2023-02-04T12:55:34.946Z,9.80
2023-02-04T12:58:40.990Z,9.80
2023-02-04T13:01:46.626Z,9.80
2023-02-04T13:04:52.624Z,9.80
2023-02-04T13:07:56.918Z,9.80
2023-02-04T13:11:02.766Z,9.80
2023-02-04T13:14:06.605Z,9.80
2023-02-04T13:17:14.398Z,9.80
2023-02-04T13:20:18.908Z,9.80
2023-02-04T13:23:24.770Z,9.80
2023-02-04T13:26:28.614Z,9.80
2023-02-04T13:29:34.478Z,9.80
2023-02-04T13:32:40.420Z,9.90
2023-02-04T13:35:46.527Z,9.90
2023-02-04T13:38:50.339Z,9.90
2023-02-04T13:41:56.158Z,9.90
2023-02-04T13:45:00.005Z,9.90
2023-02-04T13:48:07.860Z,9.90
2023-02-04T13:51:11.734Z,9.90
2023-02-04T13:54:17.618Z,9.90
2023-02-04T13:57:22.388Z,9.90
2023-02-04T14:00:28.314Z,10.00
2023-02-04T14:03:33.940Z,9.90
2023-02-04T14:06:42.930Z,9.90
2023-02-04T14:09:47.917Z,9.90
2023-02-04T14:12:54.108Z,9.90
2023-02-04T14:15:58.121Z,9.90
2023-02-04T14:19:06.698Z,9.80
2023-02-04T14:22:12.202Z,9.80
2023-02-04T14:25:18.949Z,9.80
2023-02-04T14:28:22.828Z,9.80
2023-02-04T14:31:28.941Z,9.80
2023-02-04T14:34:34.896Z,9.70
2023-02-04T14:37:40.878Z,9.70
2023-02-04T14:40:45.829Z,9.70
2023-02-04T14:43:52.738Z,9.70
2023-02-04T14:46:56.592Z,9.70
2023-02-04T14:50:05.148Z,9.60
2023-02-04T14:53:08.974Z,9.60
2023-02-04T14:56:14.899Z,9.60
2023-02-04T14:59:18.474Z,9.60
2023-02-04T15:02:24.388Z,9.60
2023-02-04T15:05:30.173Z,9.60
2023-02-04T15:08:36.271Z,9.60
2023-02-04T15:11:39.875Z,9.50
2023-02-04T15:14:45.814Z,9.50
2023-02-04T15:17:49.880Z,9.50
2023-02-04T15:20:58.042Z,9.50
2023-02-04T15:24:01.888Z,9.50
2023-02-04T15:27:08.057Z,9.40
2023-02-04T15:30:12.848Z,9.40
2023-02-04T15:33:18.691Z,9.40
2023-02-04T15:36:24.438Z,9.40
2023-02-04T15:39:30.350Z,9.40
2023-02-04T15:42:35.141Z,9.30
2023-02-04T15:45:43.177Z,9.30
2023-02-04T15:48:48.122Z,9.30
2023-02-04T15:51:57.024Z,9.20
2023-02-04T15:55:00.843Z,9.20
2023-02-04T15:58:06.681Z,9.20
2023-02-04T16:01:10.534Z,9.10
2023-02-04T16:04:16.386Z,9.10
2023-02-04T16:07:22.151Z,9.10
2023-02-04T16:10:28.123Z,9.10
2023-02-04T16:13:31.700Z,9.00
2023-02-04T16:16:37.545Z,9.00
2023-02-04T16:19:41.548Z,9.00
2023-02-04T16:22:49.342Z,9.00
2023-02-04T16:25:53.465Z,8.90
2023-02-04T16:28:59.394Z,8.90
2023-02-04T16:32:03.019Z,8.90
2023-02-04T16:35:09.561Z,8.80
2023-02-04T16:38:18.676Z,8.80
2023-02-04T16:41:24.480Z,8.80
2023-02-04T16:44:29.229Z,8.70
2023-02-04T16:47:35.050Z,8.70
2023-02-04T16:50:38.913Z,8.60
2023-02-04T16:53:46.606Z,8.60
2023-02-04T16:56:51.501Z,8.60
2023-02-04T16:59:57.348Z,8.50
2023-02-04T17:03:00.957Z,8.50
2023-02-04T17:06:07.457Z,8.50
2023-02-04T17:09:13.828Z,8.40
2023-02-04T17:12:19.700Z,8.40
2023-02-04T17:15:23.293Z,8.30
2023-02-04T17:18:30.109Z,8.30
2023-02-04T17:21:33.922Z,8.30
2023-02-04T17:24:43.125Z,8.20
2023-02-04T17:27:49.859Z,8.10
2023-02-04T17:30:55.824Z,8.10
2023-02-04T17:34:00.165Z,8.10
2023-02-04T17:37:06.010Z,8.00
2023-02-04T17:40:13.856Z,8.00
2023-02-04T17:43:19.704Z,8.00
2023-02-04T17:46:24.552Z,7.90
2023-02-04T17:49:32.799Z,7.90
2023-02-04T17:52:37.945Z,7.80
2023-02-04T17:55:45.735Z,7.80
2023-02-04T17:58:49.698Z,7.80
2023-02-04T18:01:55.642Z,7.70
2023-02-04T18:05:01.891Z,7.70
2023-02-04T18:08:14.779Z,7.60
2023-02-04T18:11:22.220Z,7.60
2023-02-04T18:14:29.535Z,7.60
2023-02-04T18:17:33.985Z,7.50
2023-02-04T18:20:39.914Z,7.50
2023-02-04T18:23:45.316Z,7.50
2023-02-04T18:26:54.847Z,7.50
2023-02-04T18:30:01.031Z,7.40
2023-02-04T18:33:16.561Z,7.40
2023-02-04T18:36:22.562Z,7.30
2023-02-04T18:39:30.332Z,7.30
2023-02-04T18:42:38.745Z,7.30
2023-02-04T18:45:44.622Z,7.30
2023-02-04T18:48:57.804Z,7.20
2023-02-04T18:52:16.637Z,7.20
2023-02-04T18:55:34.190Z,7.20
2023-02-04T18:58:43.045Z,7.20
2023-02-04T19:01:49.190Z,7.10
2023-02-04T19:05:12.007Z,7.10
2023-02-04T19:08:27.708Z,7.10
2023-02-04T19:11:37.019Z,7.00
2023-02-04T19:14:45.915Z,7.00
2023-02-04T19:17:51.809Z,7.00
2023-02-04T19:20:55.587Z,7.00
2023-02-04T19:24:09.665Z,6.90
2023-02-04T19:27:30.470Z,6.90
2023-02-04T19:30:47.039Z,6.90
2023-02-04T19:33:53.821Z,6.80
2023-02-04T19:36:59.931Z,6.80
2023-02-04T19:40:04.334Z,6.70
2023-02-04T19:43:22.631Z,6.70
2023-02-04T19:46:29.288Z,6.70
2023-02-04T19:49:40.253Z,6.70
2023-02-04T19:52:47.881Z,6.60
2023-02-04T19:55:54.992Z,6.60
2023-02-04T19:58:58.911Z,6.60
2023-02-04T20:02:27.114Z,6.50
2023-02-04T20:05:34.196Z,6.40
2023-02-04T20:08:45.769Z,6.50
2023-02-04T20:11:59.093Z,6.40
2023-02-04T20:15:17.458Z,6.40
2023-02-04T20:18:25.776Z,6.40
2023-02-04T20:21:32.240Z,6.30
2023-02-04T20:24:37.959Z,6.30
2023-02-04T20:27:43.925Z,6.30
2023-02-04T20:30:49.523Z,6.20
2023-02-04T20:33:59.091Z,6.20
2023-02-04T20:37:02.929Z,6.20
2023-02-04T20:40:20.800Z,6.10
2023-02-04T20:43:24.661Z,6.10
2023-02-04T20:46:30.756Z,6.10
2023-02-04T20:49:42.277Z,6.10
2023-02-04T20:53:06.916Z,6.00
2023-02-04T20:56:23.666Z,6.00
2023-02-04T20:59:33.921Z,6.00
2023-02-04T21:02:38.574Z,6.00
2023-02-04T21:05:47.495Z,6.00
2023-02-04T21:08:54.322Z,6.00
2023-02-04T21:12:00.941Z,6.00
2023-02-04T21:15:05.035Z,5.90
2023-02-04T21:18:10.870Z,5.90
2023-02-04T21:21:16.451Z,5.90
2023-02-04T21:24:22.296Z,5.90
2023-02-04T21:27:26.273Z,6.00
2023-02-04T21:30:32.290Z,5.90
2023-02-04T21:33:38.137Z,5.90
2023-02-04T21:36:43.664Z,5.90
2023-02-04T21:39:49.509Z,5.90
2023-02-04T21:42:53.515Z,5.90
2023-02-04T21:45:59.888Z,5.90
2023-02-04T21:49:05.017Z,5.90
2023-02-04T21:52:13.005Z,5.90
2023-02-04T21:55:20.778Z,6.00
2023-02-04T21:58:26.608Z,6.00
2023-02-04T22:01:30.271Z,6.00
2023-02-04T22:04:36.092Z,6.00
2023-02-04T22:07:41.721Z,6.00
2023-02-04T22:10:47.546Z,6.00
2023-02-04T22:13:51.170Z,6.00
2023-02-04T22:16:57.008Z,6.00
2023-02-04T22:20:00.710Z,6.00
2023-02-04T22:23:08.531Z,6.00
2023-02-04T22:26:12.356Z,6.10
2023-02-04T22:29:21.120Z,6.00
2023-02-04T22:32:25.072Z,6.10
2023-02-04T22:35:34.379Z,6.10
2023-02-04T22:38:40.291Z,6.10
2023-02-04T22:41:46.276Z,6.10
2023-02-04T22:44:50.111Z,6.10
2023-02-04T22:47:55.955Z,6.10
2023-02-04T22:51:02.705Z,6.10
2023-02-04T22:54:10.746Z,6.20
2023-02-04T22:57:14.668Z,6.20
2023-02-04T23:00:20.645Z,6.20
2023-02-04T23:03:24.508Z,6.10
2023-02-04T23:06:30.384Z,6.10
2023-02-04T23:09:35.701Z,6.20
2023-02-04T23:12:43.589Z,6.20
2023-02-04T23:15:49.528Z,6.10
2023-02-04T23:18:55.378Z,6.10
2023-02-04T23:21:58.944Z,6.20
2023-02-04T23:25:06.494Z,6.20
2023-02-04T23:28:12.572Z,6.20
2023-02-04T23:31:18.578Z,6.10
2023-02-04T23:34:22.453Z,6.20
2023-02-04T23:37:28.237Z,6.20
2023-02-04T23:40:31.926Z,6.20
2023-02-04T23:43:39.690Z,6.20
2023-02-04T23:46:43.674Z,6.20
2023-02-04T23:49:49.511Z,6.20
2023-02-04T23:52:53.134Z,6.20
2023-02-04T23:55:58.976Z,6.20
2023-02-04T23:59:05.095Z,6.20
